Terminal Aerodrome Forecast
Issued by NWS

Home | Current Version | Previous Version | Text Only | Print | Product List | Glossary On
Versions: 1 2 3 4 5 6 7 8 9 10 11 12 13 14 15
000
FTUS46 KMTR 030500
TAFMRY
TAF
KMRY 030520Z 0306/0406 25005KT P6SM OVC006
      TEMPO 0306/0309 6SM -DZ BR OVC004
     FM030900 VRB03KT 6SM -DZ BR VV002
      TEMPO 0311/0315 1/2SM FG VV001
     FM031500 VRB03KT 2SM BR VV002
     FM031800 29007KT P6SM SCT010
     FM040300 25005KT P6SM BKN010=

USA.gov is the U.S. government's official web portal to all federal, state and local government web resources and services.